sensor_id;sensor_type;location;lat;lon;timestamp;temperature;humidity
20862;DHT22;10591;52.532;13.348;2023-08-06T00:01:41;17.14;83.61
20862;DHT22;10591;52.532;13.348;2023-08-06T00:04:12;17.18;83.50
20862;DHT22;10591;52.532;13.348;2023-08-06T00:06:43;17.21;83.45
20862;DHT22;10591;52.532;13.348;2023-08-06T00:09:14;17.26;83.54
20862;DHT22;10591;52.532;13.348;2023-08-06T00:11:44;17.30;82.98
20862;DHT22;10591;52.532;13.348;2023-08-06T00:14:16;17.15;83.46
20862;DHT22;10591;52.532;13.348;2023-08-06T00:16:47;17.14;83.49
20862;DHT22;10591;52.532;13.348;2023-08-06T00:19:17;17.05;83.66
20862;DHT22;10591;52.532;13.348;2023-08-06T00:21:48;17.14;83.51
20862;DHT22;10591;52.532;13.348;2023-08-06T00:24:19;16.96;83.54
20862;DHT22;10591;52.532;13.348;2023-08-06T00:26:50;17.00;83.41
20862;DHT22;10591;52.532;13.348;2023-08-06T00:29:21;17.03;83.32
20862;DHT22;10591;52.532;13.348;2023-08-06T00:31:52;16.99;83.35
20862;DHT22;10591;52.532;13.348;2023-08-06T00:34:22;17.03;83.34
20862;DHT22;10591;52.532;13.348;2023-08-06T00:36:53;17.03;83.22
20862;DHT22;10591;52.532;13.348;2023-08-06T00:39:24;17.03;83.15
20862;DHT22;10591;52.532;13.348;2023-08-06T00:41:54;17.00;83.16
20862;DHT22;10591;52.532;13.348;2023-08-06T00:44:25;17.02;83.16
20862;DHT22;10591;52.532;13.348;2023-08-06T00:46:56;17.10;82.91
20862;DHT22;10591;52.532;13.348;2023-08-06T00:49:27;17.04;83.17
20862;DHT22;10591;52.532;13.348;2023-08-06T00:51:59;17.02;83.07
20862;DHT22;10591;52.532;13.348;2023-08-06T00:54:31;17.00;83.13
20862;DHT22;10591;52.532;13.348;2023-08-06T00:57:04;17.10;82.81
20862;DHT22;10591;52.532;13.348;2023-08-06T00:59:35;17.16;82.60
20862;DHT22;10591;52.532;13.348;2023-08-06T01:02:06;16.99;83.15
20862;DHT22;10591;52.532;13.348;2023-08-06T01:04:37;16.94;83.35
20862;DHT22;10591;52.532;13.348;2023-08-06T01:07:15;17.06;83.17
20862;DHT22;10591;52.532;13.348;2023-08-06T01:15:15;16.88;83.60
20862;DHT22;10591;52.532;13.348;2023-08-06T01:17:46;16.86;83.57
20862;DHT22;10591;52.532;13.348;2023-08-06T01:20:16;16.79;83.66
20862;DHT22;10591;52.532;13.348;2023-08-06T01:22:47;16.79;83.58
20862;DHT22;10591;52.532;13.348;2023-08-06T01:25:18;16.87;83.38
20862;DHT22;10591;52.532;13.348;2023-08-06T01:27:50;16.90;83.43
20862;DHT22;10591;52.532;13.348;2023-08-06T01:30:25;16.76;83.79
20862;DHT22;10591;52.532;13.348;2023-08-06T01:32:58;16.63;84.47
20862;DHT22;10591;52.532;13.348;2023-08-06T01:35:29;16.65;84.48
20862;DHT22;10591;52.532;13.348;2023-08-06T01:38:01;16.72;84.30
20862;DHT22;10591;52.532;13.348;2023-08-06T01:40:32;16.73;84.33
20862;DHT22;10591;52.532;13.348;2023-08-06T01:43:03;16.69;84.34
20862;DHT22;10591;52.532;13.348;2023-08-06T01:45:34;16.72;84.33
20862;DHT22;10591;52.532;13.348;2023-08-06T01:48:05;16.61;84.57
20862;DHT22;10591;52.532;13.348;2023-08-06T01:50:37;16.64;84.69
20862;DHT22;10591;52.532;13.348;2023-08-06T01:53:07;16.74;84.33
20862;DHT22;10591;52.532;13.348;2023-08-06T01:55:38;16.58;84.86
20862;DHT22;10591;52.532;13.348;2023-08-06T01:58:10;16.55;85.09
20862;DHT22;10591;52.532;13.348;2023-08-06T02:00:41;16.52;85.20
20862;DHT22;10591;52.532;13.348;2023-08-06T02:03:12;16.62;85.08
20862;DHT22;10591;52.532;13.348;2023-08-06T02:05:43;16.50;85.15
20862;DHT22;10591;52.532;13.348;2023-08-06T02:08:15;16.56;85.23
20862;DHT22;10591;52.532;13.348;2023-08-06T02:10:46;16.62;85.25
20862;DHT22;10591;52.532;13.348;2023-08-06T02:13:17;16.55;85.16
20862;DHT22;10591;52.532;13.348;2023-08-06T02:15:48;16.60;85.17
20862;DHT22;10591;52.532;13.348;2023-08-06T02:18:19;16.51;85.42
20862;DHT22;10591;52.532;13.348;2023-08-06T02:20:59;16.56;85.50
20862;DHT22;10591;52.532;13.348;2023-08-06T02:23:30;16.44;85.71
20862;DHT22;10591;52.532;13.348;2023-08-06T02:26:02;16.46;85.62
20862;DHT22;10591;52.532;13.348;2023-08-06T02:28:35;16.50;85.68
20862;DHT22;10591;52.532;13.348;2023-08-06T02:31:06;16.67;85.09
20862;DHT22;10591;52.532;13.348;2023-08-06T02:33:36;16.65;85.07
20862;DHT22;10591;52.532;13.348;2023-08-06T02:36:07;16.57;85.41
20862;DHT22;10591;52.532;13.348;2023-08-06T02:38:38;16.64;85.04
20862;DHT22;10591;52.532;13.348;2023-08-06T02:41:09;16.44;85.62
20862;DHT22;10591;52.532;13.348;2023-08-06T02:43:43;16.42;85.69
20862;DHT22;10591;52.532;13.348;2023-08-06T02:46:14;16.48;85.60
20862;DHT22;10591;52.532;13.348;2023-08-06T02:48:44;16.36;86.15
20862;DHT22;10591;52.532;13.348;2023-08-06T02:51:15;16.33;86.20
20862;DHT22;10591;52.532;13.348;2023-08-06T02:53:47;16.29;86.35
20862;DHT22;10591;52.532;13.348;2023-08-06T02:56:18;16.30;86.38
20862;DHT22;10591;52.532;13.348;2023-08-06T02:58:49;16.44;86.14
20862;DHT22;10591;52.532;13.348;2023-08-06T03:01:19;16.20;86.74
20862;DHT22;10591;52.532;13.348;2023-08-06T03:03:50;16.28;86.73
20862;DHT22;10591;52.532;13.348;2023-08-06T03:06:21;16.20;86.85
20862;DHT22;10591;52.532;13.348;2023-08-06T03:08:51;16.26;87.11
20862;DHT22;10591;52.532;13.348;2023-08-06T03:11:22;16.27;87.23
20862;DHT22;10591;52.532;13.348;2023-08-06T03:13:53;16.25;87.20
20862;DHT22;10591;52.532;13.348;2023-08-06T03:16:23;16.11;87.54
20862;DHT22;10591;52.532;13.348;2023-08-06T03:18:54;16.18;87.27
20862;DHT22;10591;52.532;13.348;2023-08-06T03:21:27;16.14;87.50
20862;DHT22;10591;52.532;13.348;2023-08-06T03:23:58;16.15;87.36
20862;DHT22;10591;52.532;13.348;2023-08-06T03:26:29;16.22;87.48
20862;DHT22;10591;52.532;13.348;2023-08-06T03:28:59;16.06;87.60
20862;DHT22;10591;52.532;13.348;2023-08-06T03:31:30;15.96;87.81
20862;DHT22;10591;52.532;13.348;2023-08-06T03:34:01;15.93;87.95
20862;DHT22;10591;52.532;13.348;2023-08-06T03:36:31;15.92;88.06
20862;DHT22;10591;52.532;13.348;2023-08-06T03:39:02;16.09;87.89
20862;DHT22;10591;52.532;13.348;2023-08-06T03:41:33;15.91;88.24
20862;DHT22;10591;52.532;13.348;2023-08-06T03:44:04;15.88;88.38
20862;DHT22;10591;52.532;13.348;2023-08-06T03:46:35;15.85;88.49
20862;DHT22;10591;52.532;13.348;2023-08-06T03:49:06;15.92;88.57
20862;DHT22;10591;52.532;13.348;2023-08-06T03:51:36;15.99;88.47
20862;DHT22;10591;52.532;13.348;2023-08-06T03:54:07;15.80;88.43
20862;DHT22;10591;52.532;13.348;2023-08-06T03:56:38;15.84;88.51
20862;DHT22;10591;52.532;13.348;2023-08-06T03:59:09;15.81;88.27
20862;DHT22;10591;52.532;13.348;2023-08-06T04:01:40;15.84;88.41
20862;DHT22;10591;52.532;13.348;2023-08-06T04:04:10;15.89;88.27
20862;DHT22;10591;52.532;13.348;2023-08-06T04:06:41;15.90;88.03
20862;DHT22;10591;52.532;13.348;2023-08-06T04:09:12;15.80;88.17
20862;DHT22;10591;52.532;13.348;2023-08-06T04:11:42;15.89;87.96
20862;DHT22;10591;52.532;13.348;2023-08-06T04:14:13;15.88;88.27
20862;DHT22;10591;52.532;13.348;2023-08-06T04:16:44;15.84;87.97
20862;DHT22;10591;52.532;13.348;2023-08-06T04:19:15;15.78;88.03
20862;DHT22;10591;52.532;13.348;2023-08-06T04:21:47;15.78;87.98
20862;DHT22;10591;52.532;13.348;2023-08-06T04:24:18;15.97;88.08
20862;DHT22;10591;52.532;13.348;2023-08-06T04:26:49;15.98;87.82
20862;DHT22;10591;52.532;13.348;2023-08-06T04:29:21;15.91;87.92
20862;DHT22;10591;52.532;13.348;2023-08-06T04:31:52;16.07;87.79
20862;DHT22;10591;52.532;13.348;2023-08-06T04:34:26;16.03;87.71
20862;DHT22;10591;52.532;13.348;2023-08-06T04:36:56;16.20;87.44
20862;DHT22;10591;52.532;13.348;2023-08-06T04:39:27;16.03;87.75
20862;DHT22;10591;52.532;13.348;2023-08-06T04:41:58;16.12;87.43
20862;DHT22;10591;52.532;13.348;2023-08-06T04:44:28;16.04;87.74
20862;DHT22;10591;52.532;13.348;2023-08-06T04:46:59;16.12;87.76
20862;DHT22;10591;52.532;13.348;2023-08-06T04:49:29;16.01;87.86
20862;DHT22;10591;52.532;13.348;2023-08-06T04:52:00;16.05;87.91
20862;DHT22;10591;52.532;13.348;2023-08-06T04:54:31;16.11;87.92
20862;DHT22;10591;52.532;13.348;2023-08-06T04:57:04;16.16;87.50
20862;DHT22;10591;52.532;13.348;2023-08-06T04:59:36;16.27;87.30
20862;DHT22;10591;52.532;13.348;2023-08-06T05:02:06;16.24;87.43
20862;DHT22;10591;52.532;13.348;2023-08-06T05:04:39;16.24;87.03
20862;DHT22;10591;52.532;13.348;2023-08-06T05:07:11;16.19;86.81
20862;DHT22;10591;52.532;13.348;2023-08-06T05:09:41;16.18;86.90
20862;DHT22;10591;52.532;13.348;2023-08-06T05:12:12;16.30;86.81
20862;DHT22;10591;52.532;13.348;2023-08-06T05:14:43;16.24;86.43
20862;DHT22;10591;52.532;13.348;2023-08-06T05:17:18;16.27;86.06
20862;DHT22;10591;52.532;13.348;2023-08-06T05:19:49;16.35;86.49
20862;DHT22;10591;52.532;13.348;2023-08-06T05:22:19;16.36;86.23
20862;DHT22;10591;52.532;13.348;2023-08-06T05:24:51;16.42;86.45
20862;DHT22;10591;52.532;13.348;2023-08-06T05:27:22;16.60;86.19
20862;DHT22;10591;52.532;13.348;2023-08-06T05:29:55;16.49;86.15
20862;DHT22;10591;52.532;13.348;2023-08-06T05:32:29;16.43;86.10
20862;DHT22;10591;52.532;13.348;2023-08-06T05:35:00;16.51;86.01
20862;DHT22;10591;52.532;13.348;2023-08-06T05:37:30;16.03;86.67
20862;DHT22;10591;52.532;13.348;2023-08-06T05:40:03;16.14;86.65
20862;DHT22;10591;52.532;13.348;2023-08-06T05:42:34;16.19;86.16
20862;DHT22;10591;52.532;13.348;2023-08-06T05:45:07;16.40;85.95
20862;DHT22;10591;52.532;13.348;2023-08-06T05:47:39;16.52;85.98
20862;DHT22;10591;52.532;13.348;2023-08-06T05:50:11;16.36;86.02
20862;DHT22;10591;52.532;13.348;2023-08-06T05:52:42;16.11;86.64
20862;DHT22;10591;52.532;13.348;2023-08-06T05:55:13;16.09;86.79
20862;DHT22;10591;52.532;13.348;2023-08-06T05:57:43;16.30;85.93
20862;DHT22;10591;52.532;13.348;2023-08-06T06:00:14;16.06;86.71
20862;DHT22;10591;52.532;13.348;2023-08-06T06:02:46;16.30;86.33
20862;DHT22;10591;52.532;13.348;2023-08-06T06:05:16;16.45;86.01
20862;DHT22;10591;52.532;13.348;2023-08-06T06:07:47;16.17;86.24
20862;DHT22;10591;52.532;13.348;2023-08-06T06:10:18;16.61;85.76
20862;DHT22;10591;52.532;13.348;2023-08-06T06:12:48;16.44;85.92
20862;DHT22;10591;52.532;13.348;2023-08-06T06:15:19;16.36;85.94
20862;DHT22;10591;52.532;13.348;2023-08-06T06:17:49;16.52;85.56
20862;DHT22;10591;52.532;13.348;2023-08-06T06:20:21;16.63;85.48
20862;DHT22;10591;52.532;13.348;2023-08-06T06:22:51;16.74;85.30
20862;DHT22;10591;52.532;13.348;2023-08-06T06:25:22;16.70;85.59
20862;DHT22;10591;52.532;13.348;2023-08-06T06:27:53;16.76;85.47
20862;DHT22;10591;52.532;13.348;2023-08-06T06:30:24;16.77;85.12
20862;DHT22;10591;52.532;13.348;2023-08-06T06:32:54;16.66;85.24
20862;DHT22;10591;52.532;13.348;2023-08-06T06:35:25;16.62;85.52
20862;DHT22;10591;52.532;13.348;2023-08-06T06:37:57;16.61;85.85
20862;DHT22;10591;52.532;13.348;2023-08-06T06:40:28;16.79;85.31
20862;DHT22;10591;52.532;13.348;2023-08-06T06:42:59;16.88;85.28
20862;DHT22;10591;52.532;13.348;2023-08-06T06:45:30;16.98;84.68
20862;DHT22;10591;52.532;13.348;2023-08-06T06:48:03;17.06;84.80
20862;DHT22;10591;52.532;13.348;2023-08-06T06:50:36;17.24;84.60
20862;DHT22;10591;52.532;13.348;2023-08-06T06:53:08;17.15;83.50
20862;DHT22;10591;52.532;13.348;2023-08-06T06:55:39;17.26;82.87
20862;DHT22;10591;52.532;13.348;2023-08-06T06:58:11;17.26;83.15
20862;DHT22;10591;52.532;13.348;2023-08-06T07:00:42;17.27;83.00
20862;DHT22;10591;52.532;13.348;2023-08-06T07:03:14;17.40;83.46
20862;DHT22;10591;52.532;13.348;2023-08-06T07:05:46;17.64;83.55
20862;DHT22;10591;52.532;13.348;2023-08-06T07:08:18;17.93;83.12
20862;DHT22;10591;52.532;13.348;2023-08-06T07:10:49;18.10;82.16
20862;DHT22;10591;52.532;13.348;2023-08-06T07:13:22;18.22;81.48
20862;DHT22;10591;52.532;13.348;2023-08-06T07:15:53;18.09;81.76
20862;DHT22;10591;52.532;13.348;2023-08-06T07:18:25;18.29;81.30
20862;DHT22;10591;52.532;13.348;2023-08-06T07:20:55;18.28;81.09
20862;DHT22;10591;52.532;13.348;2023-08-06T07:23:26;18.50;80.66
20862;DHT22;10591;52.532;13.348;2023-08-06T07:25:57;18.56;79.72
20862;DHT22;10591;52.532;13.348;2023-08-06T07:28:28;18.24;80.29
20862;DHT22;10591;52.532;13.348;2023-08-06T07:30:59;18.21;80.77
20862;DHT22;10591;52.532;13.348;2023-08-06T07:33:29;17.97;81.63
20862;DHT22;10591;52.532;13.348;2023-08-06T07:36:11;17.92;81.87
20862;DHT22;10591;52.532;13.348;2023-08-06T07:38:37;17.87;82.12
20862;DHT22;10591;52.532;13.348;2023-08-06T07:41:09;17.81;82.10
20862;DHT22;10591;52.532;13.348;2023-08-06T07:43:40;17.96;81.48
20862;DHT22;10591;52.532;13.348;2023-08-06T07:46:12;17.72;81.60
20862;DHT22;10591;52.532;13.348;2023-08-06T07:48:43;17.55;82.12
20862;DHT22;10591;52.532;13.348;2023-08-06T07:51:15;17.57;82.79
20862;DHT22;10591;52.532;13.348;2023-08-06T07:53:45;17.66;82.86
20862;DHT22;10591;52.532;13.348;2023-08-06T07:56:16;17.76;82.44
20862;DHT22;10591;52.532;13.348;2023-08-06T07:58:47;17.93;82.28
20862;DHT22;10591;52.532;13.348;2023-08-06T08:01:18;17.78;82.06
20862;DHT22;10591;52.532;13.348;2023-08-06T08:03:51;17.71;82.38
20862;DHT22;10591;52.532;13.348;2023-08-06T08:06:22;17.79;82.50
20862;DHT22;10591;52.532;13.348;2023-08-06T08:08:52;18.12;82.01
20862;DHT22;10591;52.532;13.348;2023-08-06T08:11:23;18.38;81.34
20862;DHT22;10591;52.532;13.348;2023-08-06T08:13:58;18.46;81.31
20862;DHT22;10591;52.532;13.348;2023-08-06T08:16:31;18.58;80.55
20862;DHT22;10591;52.532;13.348;2023-08-06T08:19:03;18.74;79.53
20862;DHT22;10591;52.532;13.348;2023-08-06T08:21:34;18.63;78.86
20862;DHT22;10591;52.532;13.348;2023-08-06T08:24:05;18.74;79.81
20862;DHT22;10591;52.532;13.348;2023-08-06T08:26:36;18.90;78.51
20862;DHT22;10591;52.532;13.348;2023-08-06T08:29:06;19.09;78.91
20862;DHT22;10591;52.532;13.348;2023-08-06T08:31:38;19.26;78.50
20862;DHT22;10591;52.532;13.348;2023-08-06T08:34:09;18.66;78.76
20862;DHT22;10591;52.532;13.348;2023-08-06T08:36:40;18.32;80.54
20862;DHT22;10591;52.532;13.348;2023-08-06T08:39:11;18.32;80.75
20862;DHT22;10591;52.532;13.348;2023-08-06T08:41:43;18.68;80.47
20862;DHT22;10591;52.532;13.348;2023-08-06T08:44:14;18.90;79.67
20862;DHT22;10591;52.532;13.348;2023-08-06T08:46:48;18.84;79.05
20862;DHT22;10591;52.532;13.348;2023-08-06T08:49:21;18.31;80.42
20862;DHT22;10591;52.532;13.348;2023-08-06T08:51:53;18.58;80.75
20862;DHT22;10591;52.532;13.348;2023-08-06T08:54:25;18.43;80.23
20862;DHT22;10591;52.532;13.348;2023-08-06T08:56:56;18.28;81.25
20862;DHT22;10591;52.532;13.348;2023-08-06T08:59:29;18.65;81.37
20862;DHT22;10591;52.532;13.348;2023-08-06T09:02:01;18.54;81.01
20862;DHT22;10591;52.532;13.348;2023-08-06T09:04:33;18.67;81.13
20862;DHT22;10591;52.532;13.348;2023-08-06T09:07:08;18.88;80.32
20862;DHT22;10591;52.532;13.348;2023-08-06T09:09:41;18.88;80.46
20862;DHT22;10591;52.532;13.348;2023-08-06T09:12:16;18.66;81.27
20862;DHT22;10591;52.532;13.348;2023-08-06T09:14:47;18.74;81.27
20862;DHT22;10591;52.532;13.348;2023-08-06T09:17:20;18.36;82.15
20862;DHT22;10591;52.532;13.348;2023-08-06T09:19:50;18.45;81.73
20862;DHT22;10591;52.532;13.348;2023-08-06T09:22:21;18.50;81.92
20862;DHT22;10591;52.532;13.348;2023-08-06T09:24:53;18.73;82.20
20862;DHT22;10591;52.532;13.348;2023-08-06T09:27:25;18.79;81.71
20862;DHT22;10591;52.532;13.348;2023-08-06T09:29:56;18.98;81.40
20862;DHT22;10591;52.532;13.348;2023-08-06T09:32:47;19.11;80.96
20862;DHT22;10591;52.532;13.348;2023-08-06T09:35:18;18.78;81.10
20862;DHT22;10591;52.532;13.348;2023-08-06T09:37:49;18.41;82.03
20862;DHT22;10591;52.532;13.348;2023-08-06T09:40:33;18.34;82.06
20862;DHT22;10591;52.532;13.348;2023-08-06T09:43:03;18.24;82.45
20862;DHT22;10591;52.532;13.348;2023-08-06T09:45:38;18.52;82.46
20862;DHT22;10591;52.532;13.348;2023-08-06T09:48:09;18.56;82.26
20862;DHT22;10591;52.532;13.348;2023-08-06T09:50:44;18.70;80.93
20862;DHT22;10591;52.532;13.348;2023-08-06T09:53:17;18.53;81.85
20862;DHT22;10591;52.532;13.348;2023-08-06T09:55:49;18.53;82.16
20862;DHT22;10591;52.532;13.348;2023-08-06T09:58:21;18.42;81.86
20862;DHT22;10591;52.532;13.348;2023-08-06T10:00:54;18.48;82.19
20862;DHT22;10591;52.532;13.348;2023-08-06T10:03:25;18.06;82.76
20862;DHT22;10591;52.532;13.348;2023-08-06T10:05:58;17.86;83.68
20862;DHT22;10591;52.532;13.348;2023-08-06T10:08:31;17.67;84.77
20862;DHT22;10591;52.532;13.348;2023-08-06T10:11:02;17.44;84.96
20862;DHT22;10591;52.532;13.348;2023-08-06T10:13:35;17.54;85.35
20862;DHT22;10591;52.532;13.348;2023-08-06T10:16:07;17.59;85.40
20862;DHT22;10591;52.532;13.348;2023-08-06T10:18:38;17.72;85.04
20862;DHT22;10591;52.532;13.348;2023-08-06T10:21:12;17.78;84.89
20862;DHT22;10591;52.532;13.348;2023-08-06T10:23:43;17.76;84.45
20862;DHT22;10591;52.532;13.348;2023-08-06T10:26:16;17.91;84.99
20862;DHT22;10591;52.532;13.348;2023-08-06T10:28:48;17.54;84.88
20862;DHT22;10591;52.532;13.348;2023-08-06T10:31:19;17.56;85.20
20862;DHT22;10591;52.532;13.348;2023-08-06T10:33:50;17.72;85.36
20862;DHT22;10591;52.532;13.348;2023-08-06T10:36:21;17.66;85.59
20862;DHT22;10591;52.532;13.348;2023-08-06T10:38:51;17.74;85.39
20862;DHT22;10591;52.532;13.348;2023-08-06T10:41:28;18.05;84.66
20862;DHT22;10591;52.532;13.348;2023-08-06T10:44:06;18.06;83.94
20862;DHT22;10591;52.532;13.348;2023-08-06T10:46:41;17.82;82.90
20862;DHT22;10591;52.532;13.348;2023-08-06T10:49:13;18.14;83.25
20862;DHT22;10591;52.532;13.348;2023-08-06T10:51:46;18.13;82.49
20862;DHT22;10591;52.532;13.348;2023-08-06T10:54:18;18.31;82.34
20862;DHT22;10591;52.532;13.348;2023-08-06T10:56:49;18.32;81.05
20862;DHT22;10591;52.532;13.348;2023-08-06T10:59:21;18.17;83.00
20862;DHT22;10591;52.532;13.348;2023-08-06T11:01:53;18.19;83.00
20862;DHT22;10591;52.532;13.348;2023-08-06T11:04:25;18.19;83.45
20862;DHT22;10591;52.532;13.348;2023-08-06T11:06:57;18.28;83.13
20862;DHT22;10591;52.532;13.348;2023-08-06T11:09:29;18.25;83.10
20862;DHT22;10591;52.532;13.348;2023-08-06T11:12:00;18.08;82.41
20862;DHT22;10591;52.532;13.348;2023-08-06T11:14:32;18.14;82.64
20862;DHT22;10591;52.532;13.348;2023-08-06T11:17:04;18.29;82.61
20862;DHT22;10591;52.532;13.348;2023-08-06T11:19:35;18.55;82.48
20862;DHT22;10591;52.532;13.348;2023-08-06T11:22:06;18.38;79.79
20862;DHT22;10591;52.532;13.348;2023-08-06T11:24:38;18.66;78.29
20862;DHT22;10591;52.532;13.348;2023-08-06T11:27:13;18.66;77.18
20862;DHT22;10591;52.532;13.348;2023-08-06T11:29:44;18.84;77.45
20862;DHT22;10591;52.532;13.348;2023-08-06T11:32:16;18.94;75.30
20862;DHT22;10591;52.532;13.348;2023-08-06T11:34:47;18.74;76.90
20862;DHT22;10591;52.532;13.348;2023-08-06T11:37:20;18.80;76.93
20862;DHT22;10591;52.532;13.348;2023-08-06T11:39:52;19.22;76.41
20862;DHT22;10591;52.532;13.348;2023-08-06T11:42:23;19.11;76.77
20862;DHT22;10591;52.532;13.348;2023-08-06T11:44:56;18.73;77.65
20862;DHT22;10591;52.532;13.348;2023-08-06T11:47:28;18.89;78.18
20862;DHT22;10591;52.532;13.348;2023-08-06T11:49:59;18.68;78.89
20862;DHT22;10591;52.532;13.348;2023-08-06T11:52:30;18.59;79.39
20862;DHT22;10591;52.532;13.348;2023-08-06T11:55:05;18.42;80.51
20862;DHT22;10591;52.532;13.348;2023-08-06T11:57:39;18.70;81.03
20862;DHT22;10591;52.532;13.348;2023-08-06T12:00:16;18.72;80.42
20862;DHT22;10591;52.532;13.348;2023-08-06T12:02:51;18.60;81.01
20862;DHT22;10591;52.532;13.348;2023-08-06T12:05:29;18.48;81.23
20862;DHT22;10591;52.532;13.348;2023-08-06T12:07:59;18.47;82.34
20862;DHT22;10591;52.532;13.348;2023-08-06T12:10:31;18.54;82.26
20862;DHT22;10591;52.532;13.348;2023-08-06T12:13:03;18.50;81.85
20862;DHT22;10591;52.532;13.348;2023-08-06T12:15:33;18.58;82.06
20862;DHT22;10591;52.532;13.348;2023-08-06T12:18:04;18.65;82.33
20862;DHT22;10591;52.532;13.348;2023-08-06T12:20:36;18.23;82.66
20862;DHT22;10591;52.532;13.348;2023-08-06T12:23:08;18.25;83.32
20862;DHT22;10591;52.532;13.348;2023-08-06T12:25:39;18.20;84.09
20862;DHT22;10591;52.532;13.348;2023-08-06T12:28:10;18.10;84.25
20862;DHT22;10591;52.532;13.348;2023-08-06T12:30:41;18.24;84.43
20862;DHT22;10591;52.532;13.348;2023-08-06T12:33:14;18.36;84.21
20862;DHT22;10591;52.532;13.348;2023-08-06T12:35:44;18.52;83.85
20862;DHT22;10591;52.532;13.348;2023-08-06T12:38:17;18.42;83.66
20862;DHT22;10591;52.532;13.348;2023-08-06T12:40:49;18.69;82.19
20862;DHT22;10591;52.532;13.348;2023-08-06T12:43:19;18.42;82.88
20862;DHT22;10591;52.532;13.348;2023-08-06T12:45:52;18.58;83.17
20862;DHT22;10591;52.532;13.348;2023-08-06T12:48:23;18.68;83.27
20862;DHT22;10591;52.532;13.348;2023-08-06T12:50:54;18.72;82.70
20862;DHT22;10591;52.532;13.348;2023-08-06T12:53:25;18.59;83.15
20862;DHT22;10591;52.532;13.348;2023-08-06T12:55:55;18.73;82.71
20862;DHT22;10591;52.532;13.348;2023-08-06T12:58:26;18.50;83.47
20862;DHT22;10591;52.532;13.348;2023-08-06T13:00:56;18.54;83.06
20862;DHT22;10591;52.532;13.348;2023-08-06T13:03:28;18.32;83.57
20862;DHT22;10591;52.532;13.348;2023-08-06T13:06:02;18.47;83.10
20862;DHT22;10591;52.532;13.348;2023-08-06T13:08:32;18.08;84.03
20862;DHT22;10591;52.532;13.348;2023-08-06T13:11:03;18.11;84.03
20862;DHT22;10591;52.532;13.348;2023-08-06T13:13:34;17.96;84.31
20862;DHT22;10591;52.532;13.348;2023-08-06T13:16:06;17.85;84.79
20862;DHT22;10591;52.532;13.348;2023-08-06T13:18:37;17.78;84.79
20862;DHT22;10591;52.532;13.348;2023-08-06T13:21:10;18.01;84.45
20862;DHT22;10591;52.532;13.348;2023-08-06T13:23:44;17.91;85.09
20862;DHT22;10591;52.532;13.348;2023-08-06T13:26:15;18.04;84.80
20862;DHT22;10591;52.532;13.348;2023-08-06T13:28:46;17.94;84.73
20862;DHT22;10591;52.532;13.348;2023-08-06T13:31:19;17.80;85.09
20862;DHT22;10591;52.532;13.348;2023-08-06T13:33:50;17.70;85.31
20862;DHT22;10591;52.532;13.348;2023-08-06T13:36:22;17.78;85.79
20862;DHT22;10591;52.532;13.348;2023-08-06T13:38:55;17.71;85.90
20862;DHT22;10591;52.532;13.348;2023-08-06T13:41:26;17.64;85.52
20862;DHT22;10591;52.532;13.348;2023-08-06T13:43:58;17.76;85.08
20862;DHT22;10591;52.532;13.348;2023-08-06T13:46:29;17.84;85.20
20862;DHT22;10591;52.532;13.348;2023-08-06T13:49:01;17.97;85.20
20862;DHT22;10591;52.532;13.348;2023-08-06T13:51:32;17.96;85.25
20862;DHT22;10591;52.532;13.348;2023-08-06T13:54:03;17.93;85.38
20862;DHT22;10591;52.532;13.348;2023-08-06T13:56:35;17.97;85.37
20862;DHT22;10591;52.532;13.348;2023-08-06T13:59:08;17.59;85.89
20862;DHT22;10591;52.532;13.348;2023-08-06T14:01:42;17.42;88.15
20862;DHT22;10591;52.532;13.348;2023-08-06T14:04:14;17.08;89.19
20862;DHT22;10591;52.532;13.348;2023-08-06T14:06:45;16.84;89.40
20862;DHT22;10591;52.532;13.348;2023-08-06T14:09:16;16.76;89.63
20862;DHT22;10591;52.532;13.348;2023-08-06T14:11:48;16.72;89.84
20862;DHT22;10591;52.532;13.348;2023-08-06T14:14:20;16.76;89.90
20862;DHT22;10591;52.532;13.348;2023-08-06T14:16:53;16.80;90.08
20862;DHT22;10591;52.532;13.348;2023-08-06T14:19:26;16.83;89.99
20862;DHT22;10591;52.532;13.348;2023-08-06T14:22:00;16.70;89.72
20862;DHT22;10591;52.532;13.348;2023-08-06T14:24:30;16.46;89.69
20862;DHT22;10591;52.532;13.348;2023-08-06T14:27:03;16.40;89.68
20862;DHT22;10591;52.532;13.348;2023-08-06T14:29:35;16.60;89.63
20862;DHT22;10591;52.532;13.348;2023-08-06T14:32:06;16.52;89.75
20862;DHT22;10591;52.532;13.348;2023-08-06T14:34:37;16.43;89.68
20862;DHT22;10591;52.532;13.348;2023-08-06T14:37:07;16.46;89.74
20862;DHT22;10591;52.532;13.348;2023-08-06T14:39:41;16.49;89.74
20862;DHT22;10591;52.532;13.348;2023-08-06T14:42:14;16.46;89.74
20862;DHT22;10591;52.532;13.348;2023-08-06T14:44:46;16.62;89.74
20862;DHT22;10591;52.532;13.348;2023-08-06T14:47:17;16.88;89.52
20862;DHT22;10591;52.532;13.348;2023-08-06T14:49:48;16.68;89.37
20862;DHT22;10591;52.532;13.348;2023-08-06T14:52:24;16.60;89.35
20862;DHT22;10591;52.532;13.348;2023-08-06T14:54:57;16.51;89.17
20862;DHT22;10591;52.532;13.348;2023-08-06T14:57:29;16.69;89.12
20862;DHT22;10591;52.532;13.348;2023-08-06T15:00:03;16.75;89.11
20862;DHT22;10591;52.532;13.348;2023-08-06T15:02:34;16.72;88.96
20862;DHT22;10591;52.532;13.348;2023-08-06T15:05:07;16.65;88.53
20862;DHT22;10591;52.532;13.348;2023-08-06T15:07:38;16.70;88.64
20862;DHT22;10591;52.532;13.348;2023-08-06T15:10:13;16.77;88.48
20862;DHT22;10591;52.532;13.348;2023-08-06T15:12:46;16.74;87.32
20862;DHT22;10591;52.532;13.348;2023-08-06T15:15:19;16.54;86.66
20862;DHT22;10591;52.532;13.348;2023-08-06T15:17:53;16.66;87.01
20862;DHT22;10591;52.532;13.348;2023-08-06T15:20:26;16.89;86.93
20862;DHT22;10591;52.532;13.348;2023-08-06T15:22:57;16.74;86.07
20862;DHT22;10591;52.532;13.348;2023-08-06T15:25:28;16.91;85.68
20862;DHT22;10591;52.532;13.348;2023-08-06T15:28:02;16.91;85.20
20862;DHT22;10591;52.532;13.348;2023-08-06T15:30:33;16.87;84.92
20862;DHT22;10591;52.532;13.348;2023-08-06T15:33:05;16.98;85.39
20862;DHT22;10591;52.532;13.348;2023-08-06T15:35:37;17.00;85.44
20862;DHT22;10591;52.532;13.348;2023-08-06T15:38:08;17.06;85.28
20862;DHT22;10591;52.532;13.348;2023-08-06T15:40:39;17.00;84.97
20862;DHT22;10591;52.532;13.348;2023-08-06T15:43:10;17.18;85.06
20862;DHT22;10591;52.532;13.348;2023-08-06T15:45:41;17.25;85.04
20862;DHT22;10591;52.532;13.348;2023-08-06T15:48:12;17.22;84.88